Time;durP1;ratioP1;P1;durP2;ratioP2;P2;SDS_P1;SDS_P2;PMS_P1;PMS_P2;Temp;Humidity;BMP_temperature;BMP_pressure;BME280_temperature;BME280_humidity;BME280_pressure;Samples;Min_cycle;Max_cycle;Signal;HPM_P1;HPM_P2
2021/04/29 00:00:46;;;;;;;24.52;11.48;;;;;;;2.67;63.67;100415.91;1744262;82;21195;-75
2021/04/29 00:03:14;;;;;;;22.25;10.78;;;;;;;2.60;63.48;100411.99;1744149;80;21235;-73
2021/04/29 00:05:42;;;;;;;22.58;11.33;;;;;;;2.51;64.15;100416.78;1744369;82;21635;-74
2021/04/29 00:08:10;;;;;;;23.02;9.93;;;;;;;2.44;64.91;100416.31;1744054;80;21787;-74
2021/04/29 00:10:39;;;;;;;21.77;10.32;;;;;;;2.39;65.07;100420.66;1744172;82;21192;-73
2021/04/29 00:13:08;;;;;;;21.65;10.93;;;;;;;2.31;65.65;100416.31;1744344;82;21204;-74
2021/04/29 00:15:38;;;;;;;21.90;10.45;;;;;;;2.24;65.41;100414.58;1751252;80;21844;-73
2021/04/29 00:18:06;;;;;;;21.42;9.85;;;;;;;2.17;65.77;100411.98;1775130;80;21221;-71
2021/04/29 00:20:34;;;;;;;23.67;11.35;;;;;;;2.01;66.40;100409.34;1775295;80;21170;-70
2021/04/29 00:23:03;;;;;;;18.85;10.03;;;;;;;1.95;67.10;100417.55;1778858;80;21154;-71
2021/04/29 00:25:31;;;;;;;26.17;11.38;;;;;;;1.88;67.33;100421.41;1781123;80;21155;-70
2021/04/29 00:27:59;;;;;;;22.05;10.85;;;;;;;1.88;67.33;100421.41;1753597;80;21353;-70
2021/04/29 00:30:27;;;;;;;23.40;11.30;;;;;;;1.83;67.96;100417.94;1777677;80;21196;-72
2021/04/29 00:32:55;;;;;;;22.80;10.68;;;;;;;1.80;68.61;100414.05;1781792;80;21669;-73
2021/04/29 00:35:23;;;;;;;22.30;11.08;;;;;;;1.71;69.07;100421.80;1781660;80;21412;-72
2021/04/29 00:37:52;;;;;;;24.05;11.88;;;;;;;1.71;69.07;100421.80;1780803;80;21206;-74
2021/04/29 00:40:20;;;;;;;25.50;12.33;;;;;;;1.66;68.40;100415.73;1780884;80;21210;-72
2021/04/29 00:42:48;;;;;;;21.17;10.00;;;;;;;1.63;69.19;100411.80;1780427;80;21364;-72
2021/04/29 00:45:16;;;;;;;22.25;10.95;;;;;;;1.58;68.13;100412.23;1779278;80;21223;-72
2021/04/29 00:47:49;;;;;;;21.50;10.10;;;;;;;1.53;69.09;100413.50;1779160;80;21192;-71
2021/04/29 00:50:21;;;;;;;20.35;9.55;;;;;;;1.48;68.48;100413.06;1752626;80;21781;-72
2021/04/29 00:52:50;;;;;;;17.80;9.45;;;;;;;1.45;69.02;100410.89;1779412;80;21163;-72
2021/04/29 00:55:18;;;;;;;25.00;12.05;;;;;;;1.38;68.90;100410.42;1779179;80;21195;-71
2021/04/29 00:57:46;;;;;;;24.20;11.95;;;;;;;1.38;68.90;100410.42;1779179;80;21277;-72
2021/04/29 01:00:15;;;;;;;18.80;9.28;;;;;;;1.30;69.40;100410.80;1779139;80;21182;-72
2021/04/29 01:02:52;;;;;;;22.15;11.95;;;;;;;1.26;69.53;100406.45;1779203;79;21203;-72
2021/04/29 01:05:33;;;;;;;23.95;11.38;;;;;;;1.23;69.60;100411.19;1779386;79;21175;-71
2021/04/29 01:08:11;;;;;;;27.30;10.85;;;;;;;1.19;70.21;100402.09;1779261;80;21203;-72
2021/04/29 01:10:47;;;;;;;23.30;11.53;;;;;;;1.16;69.85;100402.94;1779266;79;21642;-73
2021/04/29 01:13:20;;;;;;;29.70;11.88;;;;;;;1.14;70.89;100406.39;1779311;80;21223;-73
2021/04/29 01:15:50;;;;;;;22.70;10.72;;;;;;;1.13;71.31;100404.64;1779486;80;21127;-72
2021/04/29 01:18:19;;;;;;;25.17;9.80;;;;;;;1.10;70.64;100405.92;1779229;80;21175;-71
2021/04/29 01:21:01;;;;;;;15.40;8.50;;;;;;;1.06;70.39;100403.77;1761828;79;21375;-73
2021/04/29 01:23:50;;;;;;;15.80;8.30;;;;;;;1.03;70.98;100405.02;1742141;81;21167;-73
2021/04/29 01:26:40;;;;;;;27.82;11.05;;;;;;;1.02;71.40;100402.86;1743098;81;21183;-71
2021/04/29 01:29:13;;;;;;;21.65;10.98;;;;;;;0.99;71.69;100410.63;1762499;81;21207;-71
2021/04/29 01:31:44;;;;;;;19.27;10.65;;;;;;;0.96;71.30;100407.14;1762325;81;21176;-72
2021/04/29 01:34:16;;;;;;;24.30;11.20;;;;;;;0.92;70.93;100404.97;1749954;81;22147;-71
2021/04/29 01:36:47;;;;;;;16.82;8.83;;;;;;;0.89;71.26;100408.81;1738381;82;21226;-71
2021/04/29 01:39:16;;;;;;;17.02;7.15;;;;;;;0.86;71.65;100406.22;1728437;82;21159;-73
2021/04/29 01:41:49;;;;;;;21.15;8.65;;;;;;;0.83;71.60;100406.20;1738552;82;21171;-72
2021/04/29 01:44:21;;;;;;;20.35;9.63;;;;;;;0.77;71.56;100406.16;1740522;82;21151;-71
2021/04/29 01:46:49;;;;;;;19.70;8.93;;;;;;;0.76;72.14;100406.98;1742785;82;21401;-73
2021/04/29 01:49:19;;;;;;;19.12;9.93;;;;;;;0.73;71.96;100405.68;1732402;82;21163;-73
2021/04/29 01:51:46;;;;;;;17.98;8.98;;;;;;;0.68;72.06;100409.97;1739164;82;21662;-73
2021/04/29 01:54:16;;;;;;;25.68;9.58;;;;;;;0.66;72.44;100409.09;1738606;82;21187;-74
2021/04/29 01:56:45;;;;;;;22.10;10.10;;;;;;;0.61;72.14;100413.80;1738749;82;21173;-74
2021/04/29 01:59:14;;;;;;;20.95;9.55;;;;;;;0.58;72.54;100418.11;1738424;81;21206;-74
2021/04/29 02:01:42;;;;;;;23.42;10.30;;;;;;;0.54;73.07;100412.02;1738324;81;21216;-73
2021/04/29 02:04:11;;;;;;;18.48;8.75;;;;;;;0.52;72.58;100416.75;1738365;82;21204;-74
2021/04/29 02:06:44;;;;;;;17.90;9.40;;;;;;;0.48;72.94;100417.14;1738227;82;21164;-73
2021/04/29 02:09:13;;;;;;;19.60;9.40;;;;;;;0.45;72.42;100414.53;1738379;82;21199;-72
2021/04/29 02:11:58;;;;;;;17.48;8.30;;;;;;;0.44;72.69;100424.88;1738366;82;21193;-72
2021/04/29 02:14:47;;;;;;;25.97;8.70;;;;;;;0.40;73.32;100417.52;1728224;82;21150;-74
2021/04/29 02:17:36;;;;;;;18.52;8.10;;;;;;;0.36;73.17;100414.45;1738554;82;21187;-72
2021/04/29 02:20:06;;;;;;;16.10;9.00;;;;;;;0.33;73.48;100422.20;1738447;82;21148;-73
2021/04/29 02:22:34;;;;;;;18.57;7.53;;;;;;;0.31;73.70;100420.03;1738815;81;21249;-74
2021/04/29 02:25:04;;;;;;;19.32;8.28;;;;;;;0.28;74.04;100420.00;1739747;81;21384;-75
2021/04/29 02:27:35;;;;;;;15.90;8.65;;;;;;;0.23;73.75;100418.67;1740074;82;21218;-73
2021/04/29 02:30:12;;;;;;;17.70;8.78;;;;;;;0.20;73.55;100424.66;1739593;82;21150;-70
2021/04/29 02:32:40;;;;;;;17.55;8.28;;;;;;;0.16;74.00;100420.33;1713857;82;21163;-73
2021/04/29 02:35:13;;;;;;;14.03;7.85;;;;;;;0.13;74.38;100424.16;1739629;82;21183;-71
2021/04/29 02:37:43;;;;;;;16.60;7.42;;;;;;;0.12;74.25;100428.05;1739557;81;21260;-71
2021/04/29 02:40:13;;;;;;;16.35;8.13;;;;;;;0.08;73.95;100424.98;1739777;82;21878;-71
2021/04/29 02:42:43;;;;;;;13.93;8.55;;;;;;;0.06;74.38;100427.98;1739271;82;21211;-70
2021/04/29 02:45:14;;;;;;;13.50;6.90;;;;;;;0.03;74.37;100431.84;1745507;81;21187;-70
2021/04/29 02:47:46;;;;;;;;;;;;;;;0.02;75.01;100428.36;1771151;81;21231;-71
2021/04/29 02:50:24;;;;;;;20.32;9.50;;;;;;;0.02;75.33;100429.65;1768663;81;21408;-73
2021/04/29 02:52:52;;;;;;;17.20;9.18;;;;;;;0.01;75.39;100429.22;1768304;80;21179;-71
2021/04/29 02:55:22;;;;;;;18.57;9.53;;;;;;;0.00;75.40;100428.80;1768285;81;21154;-73
2021/04/29 02:57:50;;;;;;;22.02;11.03;;;;;;;-0.01;75.90;100427.04;1768296;81;21221;-72
2021/04/29 03:00:20;;;;;;;20.00;10.23;;;;;;;0.01;75.37;100430.52;1741047;81;21211;-73
2021/04/29 03:02:48;;;;;;;20.05;10.25;;;;;;;-0.02;75.06;100420.14;1762699;80;21178;-73
2021/04/29 03:05:16;;;;;;;20.00;10.35;;;;;;;-0.03;75.06;100421.83;1749780;82;21659;-72
2021/04/29 03:20:45;;;;;;;15.37;9.50;;;;;;;1.68;74.02;100417.91;1843765;76;22825;-73
2021/04/29 03:23:21;;;;;;;19.50;10.80;;;;;;;2.28;72.29;100421.52;1801465;78;27860;-73
2021/04/29 03:25:51;;;;;;;15.05;9.20;;;;;;;2.78;71.47;100417.63;1790183;79;21143;-74
2021/04/29 03:28:19;;;;;;;19.95;9.53;;;;;;;3.28;69.81;100416.69;1789259;79;22112;-73
2021/04/29 03:30:47;;;;;;;23.30;10.23;;;;;;;3.72;68.18;100419.56;1787868;79;22021;-75
2021/04/29 03:33:15;;;;;;;22.05;10.03;;;;;;;4.12;66.77;100416.77;1780422;79;21685;-75
2021/04/29 03:35:45;;;;;;;17.67;9.33;;;;;;;4.52;65.36;100415.19;1797120;79;21048;-74
2021/04/29 03:41:23;;;;;;;20.50;9.93;;;;;;;5.33;63.47;100422.25;1608008;82;21276;-75
2021/04/29 03:43:51;;;;;;;19.20;10.13;;;;;;;5.81;62.96;100425.61;1633710;85;21655;-73
2021/04/29 03:46:19;;;;;;;21.07;10.63;;;;;;;6.19;61.71;100421.63;1629106;85;21697;-75
2021/04/29 03:48:49;;;;;;;28.07;12.53;;;;;;;6.52;60.90;100428.13;1630975;86;21208;-72
2021/04/29 03:51:17;;;;;;;24.70;12.63;;;;;;;6.80;59.71;100428.54;1630528;85;25746;-74
2021/04/29 03:53:46;;;;;;;25.50;13.88;;;;;;;7.06;58.21;100422.88;1630392;85;21237;-74
2021/04/29 03:56:14;;;;;;;23.35;13.62;;;;;;;7.41;57.80;100421.34;1647230;86;21226;-74
2021/04/29 03:58:42;;;;;;;26.73;13.10;;;;;;;7.75;57.04;100418.92;1651916;86;21171;-76
2021/04/29 04:01:10;;;;;;;30.23;13.38;;;;;;;8.04;55.41;100414.80;1637087;85;21729;-76
2021/04/29 04:03:38;;;;;;;25.20;14.13;;;;;;;8.41;54.36;100420.55;1605890;87;21239;-73
2021/04/29 04:06:07;;;;;;;25.52;13.90;;;;;;;8.74;53.58;100418.00;1603574;87;21865;-73
2021/04/29 04:08:35;;;;;;;39.85;14.98;;;;;;;9.09;52.27;100414.92;1657793;85;21243;-76
2021/04/29 04:11:02;;;;;;;25.90;12.65;;;;;;;9.43;51.12;100421.02;1647298;85;21577;-75
2021/04/29 04:13:31;;;;;;;27.93;12.25;;;;;;;9.69;49.80;100408.89;1667028;84;21229;-74
2021/04/29 04:15:59;;;;;;;29.90;13.45;;;;;;;9.96;49.29;100413.80;1659762;85;21662;-74
2021/04/29 04:18:27;;;;;;;22.85;11.97;;;;;;;10.14;48.74;100407.09;1654214;86;21265;-73
2021/04/29 04:20:56;;;;;;;20.92;12.15;;;;;;;10.49;47.99;100404.72;1637167;85;21176;-74
2021/04/29 04:23:24;;;;;;;28.67;12.73;;;;;;;10.85;47.40;100399.59;1629870;86;21223;-74
2021/04/29 04:25:52;;;;;;;27.87;11.70;;;;;;;11.18;46.00;100403.29;1629981;86;21523;-77
2021/04/29 04:28:21;;;;;;;22.65;10.60;;;;;;;11.45;46.17;100406.27;1632815;86;21148;-76
2021/04/29 04:30:49;;;;;;;16.87;10.30;;;;;;;11.83;45.01;100407.95;1603004;89;21901;-76
2021/04/29 04:33:17;;;;;;;19.20;9.73;;;;;;;12.08;43.85;100397.83;1634388;86;21190;-76
2021/04/29 04:35:45;;;;;;;15.60;8.63;;;;;;;12.26;43.51;100396.22;1602716;89;21219;-76
2021/04/29 04:38:13;;;;;;;21.70;9.15;;;;;;;12.28;42.83;100399.66;1635119;85;21339;-78
2021/04/29 04:40:41;;;;;;;15.08;8.35;;;;;;;12.29;42.81;100400.93;1655550;86;21198;-76
2021/04/29 04:43:10;;;;;;;16.25;8.23;;;;;;;11.90;43.02;100400.23;1647546;85;21813;-77
2021/04/29 04:45:43;;;;;;;16.67;8.63;;;;;;;11.11;44.52;100403.53;1625007;86;21231;-77
2021/04/29 04:48:10;;;;;;;15.85;8.53;;;;;;;10.88;45.61;100408.70;1653429;86;21183;-77
2021/04/29 04:50:39;;;;;;;14.75;8.65;;;;;;;11.23;45.70;100404.02;1652106;86;21498;-77
2021/04/29 04:53:07;;;;;;;16.35;8.75;;;;;;;11.84;44.88;100405.70;1651248;86;21460;-76
2021/04/29 04:55:41;;;;;;;14.87;8.58;;;;;;;12.32;43.46;100403.44;1654533;86;22341;-76
2021/04/29 04:58:07;;;;;;;13.05;8.80;;;;;;;12.68;42.54;100404.20;1648758;86;21239;-77
2021/04/29 05:00:34;;;;;;;14.75;8.85;;;;;;;12.50;43.13;100400.98;1656055;86;21806;-77
2021/04/29 05:03:02;;;;;;;15.63;8.53;;;;;;;12.27;43.22;100404.09;1649088;86;21212;-78
2021/04/29 05:05:31;;;;;;;17.00;8.30;;;;;;;12.21;43.62;100413.56;1644532;86;21237;-77
2021/04/29 05:08:00;;;;;;;17.07;8.30;;;;;;;12.24;43.90;100405.53;1653131;86;21917;-76
2021/04/29 05:10:30;;;;;;;23.15;9.70;;;;;;;12.17;43.88;100398.78;1657540;86;21646;-78
2021/04/29 05:13:00;;;;;;;14.73;8.98;;;;;;;11.92;44.11;100408.96;1656168;86;21238;-76
2021/04/29 05:15:31;;;;;;;16.27;10.13;;;;;;;11.66;44.85;100414.31;1643924;87;21245;-77
2021/04/29 05:18:00;;;;;;;17.52;10.18;;;;;;;11.32;45.48;100411.13;1644869;87;21172;-76
2021/04/29 05:20:28;;;;;;;24.85;10.43;;;;;;;11.05;46.16;100415.59;1649709;86;21196;-76
2021/04/29 05:22:56;;;;;;;20.75;11.63;;;;;;;10.95;46.81;100414.20;1644091;84;21647;-77
2021/04/29 05:25:24;;;;;;;18.62;10.58;;;;;;;10.85;47.31;100416.72;1645033;86;21180;-78
2021/04/29 05:27:53;;;;;;;15.20;10.25;;;;;;;10.74;47.63;100417.53;1663854;85;21255;-77
2021/04/29 05:30:22;;;;;;;21.35;10.95;;;;;;;10.59;48.23;100422.86;1703473;83;21634;-78
2021/04/29 05:32:50;;;;;;;18.95;11.68;;;;;;;10.57;48.64;100418.95;1698219;83;21477;-77
2021/04/29 05:35:19;;;;;;;20.80;10.55;;;;;;;10.47;49.13;100421.48;1698977;83;21586;-77
2021/04/29 05:37:47;;;;;;;17.67;11.48;;;;;;;10.28;50.74;100420.75;1697036;84;21198;-76
2021/04/29 05:40:15;;;;;;;19.57;10.63;;;;;;;10.07;50.76;100418.72;1696642;83;21637;-77
2021/04/29 05:42:45;;;;;;;26.65;12.13;;;;;;;10.00;52.39;100426.39;1658140;84;21220;-77
2021/04/29 05:45:14;;;;;;;20.57;11.75;;;;;;;9.97;51.51;100427.81;1672054;83;21231;-78
2021/04/29 05:47:42;;;;;;;22.60;11.40;;;;;;;9.88;51.74;100433.74;1684106;83;21062;-77
2021/04/29 05:50:12;;;;;;;22.22;11.05;;;;;;;9.77;53.28;100432.34;1693583;83;21229;-78
2021/04/29 05:52:40;;;;;;;23.75;10.32;;;;;;;9.70;52.46;100430.33;1689449;83;21148;-77
2021/04/29 05:55:10;;;;;;;18.10;9.08;;;;;;;9.64;52.58;100423.95;1688007;83;21197;-74
2021/04/29 05:57:38;;;;;;;15.35;8.53;;;;;;;9.55;53.08;100424.21;1687819;83;22340;-77
2021/04/29 06:00:09;;;;;;;24.23;9.93;;;;;;;9.43;52.47;100420.13;1688400;83;21209;-77
2021/04/29 06:02:41;;;;;;;11.90;8.48;;;;;;;9.31;53.15;100417.39;1687770;83;21640;-77
2021/04/29 06:05:12;;;;;;;25.30;9.43;;;;;;;9.26;52.84;100423.23;1682232;83;22318;-76
2021/04/29 06:07:41;;;;;;;11.95;8.25;;;;;;;9.27;53.33;100422.34;1684702;83;21217;-77
2021/04/29 06:10:10;;;;;;;15.15;8.00;;;;;;;9.36;53.22;100419.47;1680013;83;22715;-77
2021/04/29 06:12:39;;;;;;;16.87;7.67;;;;;;;9.49;52.84;100425.23;1681450;85;21167;-77
2021/04/29 06:15:08;;;;;;;14.80;7.97;;;;;;;9.59;53.55;100420.56;1675648;83;21260;-75
2021/04/29 06:17:36;;;;;;;13.25;7.58;;;;;;;9.65;52.37;100425.66;1687740;83;21651;-77
2021/04/29 06:20:05;;;;;;;14.30;7.95;;;;;;;9.66;51.87;100432.63;1689250;83;21574;-77
2021/04/29 06:22:34;;;;;;;14.50;8.15;;;;;;;9.58;51.41;100431.55;1706636;83;21679;-77
2021/04/29 06:25:02;;;;;;;16.40;8.93;;;;;;;9.57;52.39;100432.89;1690497;83;21203;-78
2021/04/29 06:27:30;;;;;;;13.22;7.72;;;;;;;9.59;52.11;100435.03;1685468;83;21249;-78
2021/04/29 06:29:59;;;;;;;14.00;8.83;;;;;;;9.68;52.46;100438.71;1685808;82;36442;-77
2021/04/29 06:32:27;;;;;;;15.68;9.00;;;;;;;9.78;51.60;100437.56;1711475;83;21143;-77
2021/04/29 06:34:56;;;;;;;13.78;8.75;;;;;;;9.86;51.44;100439.50;1701663;82;21227;-76
2021/04/29 06:37:24;;;;;;;14.05;9.88;;;;;;;9.94;50.47;100437.09;1702974;82;21194;-77
2021/04/29 06:39:52;;;;;;;19.15;9.90;;;;;;;9.94;50.72;100439.72;1695724;82;21155;-75
2021/04/29 06:42:20;;;;;;;14.98;8.20;;;;;;;9.92;50.92;100439.79;1698685;82;21183;-76
2021/04/29 06:44:52;;;;;;;15.40;9.90;;;;;;;9.92;51.02;100432.36;1702511;82;21145;-77
2021/04/29 06:47:26;;;;;;;13.20;8.55;;;;;;;9.96;51.35;100437.48;1704923;82;21426;-77
2021/04/29 06:49:54;;;;;;;17.48;10.65;;;;;;;9.93;51.21;100432.75;1702407;82;21657;-77
2021/04/29 06:52:23;;;;;;;12.23;9.20;;;;;;;10.04;51.36;100438.56;1712322;82;21203;-74
2021/04/29 06:54:51;;;;;;;13.58;9.53;;;;;;;10.21;51.21;100440.21;1707407;82;21719;-75
2021/04/29 06:57:19;;;;;;;13.30;9.40;;;;;;;10.31;50.22;100436.02;1702606;82;21172;-71
2021/04/29 06:59:49;;;;;;;19.00;10.23;;;;;;;10.40;51.55;100430.46;1677832;84;21246;-82
2021/04/29 07:02:18;;;;;;;13.55;8.75;;;;;;;10.57;50.89;100422.05;1678306;83;21209;-78
2021/04/29 07:04:47;;;;;;;13.75;7.95;;;;;;;10.82;49.54;100426.05;1672951;84;21225;-75
2021/04/29 07:07:15;;;;;;;15.32;9.48;;;;;;;11.04;48.91;100424.86;1680799;84;21684;-76
2021/04/29 07:09:43;;;;;;;13.58;8.78;;;;;;;11.38;48.39;100421.91;1678036;84;22086;-87
2021/04/29 07:12:12;;;;;;;12.40;8.23;;;;;;;11.73;46.64;100418.44;1676826;85;21675;-81
2021/04/29 07:14:40;;;;;;;18.67;8.13;;;;;;;11.99;46.17;100417.97;1672411;85;21264;-75
2021/04/29 07:17:08;;;;;;;9.90;5.72;;;;;;;12.04;45.71;100425.25;1678024;83;21443;-72
2021/04/29 07:19:39;;;;;;;17.77;7.55;;;;;;;12.02;45.16;100419.17;1681025;84;21250;-74
2021/04/29 07:22:07;;;;;;;13.55;6.58;;;;;;;12.10;45.12;100426.31;1692296;84;21561;-73
2021/04/29 07:24:36;;;;;;;24.90;7.83;;;;;;;12.18;45.32;100415.86;1680051;84;21389;-74
2021/04/29 07:27:05;;;;;;;16.85;7.78;;;;;;;12.24;45.13;100414.78;1658868;85;21266;-74
2021/04/29 07:29:35;;;;;;;11.28;6.08;;;;;;;12.60;45.13;100418.17;1690390;83;21227;-74
2021/04/29 07:32:04;;;;;;;13.93;6.62;;;;;;;12.84;44.55;100416.75;1697388;83;21170;-74
2021/04/29 07:34:33;;;;;;;17.70;7.20;;;;;;;13.26;43.88;100407.94;1689164;83;21600;-71
2021/04/29 07:37:01;;;;;;;12.23;6.75;;;;;;;13.53;43.13;100408.07;1692448;83;21385;-74
2021/04/29 07:39:30;;;;;;;16.75;7.60;;;;;;;13.86;43.75;100408.78;1694855;83;21494;-72
2021/04/29 07:41:58;;;;;;;14.47;8.10;;;;;;;14.36;42.60;100408.66;1682143;83;21186;-73
2021/04/29 07:44:26;;;;;;;10.78;6.75;;;;;;;14.56;40.53;100406.37;1665131;85;21225;-75
2021/04/29 07:46:54;;;;;;;17.15;7.95;;;;;;;14.68;39.97;100399.17;1662298;85;21232;-75
2021/04/29 07:49:24;;;;;;;14.98;7.62;;;;;;;14.59;40.52;100399.63;1662498;84;21459;-75
2021/04/29 07:51:54;;;;;;;14.10;8.05;;;;;;;14.68;40.37;100413.75;1668401;84;21179;-73
2021/04/29 07:54:22;;;;;;;14.43;8.00;;;;;;;14.55;40.33;100403.34;1669219;84;21245;-74
2021/04/29 07:56:51;;;;;;;11.28;7.08;;;;;;;14.65;40.22;100408.57;1663784;84;21144;-74
2021/04/29 07:59:19;;;;;;;12.82;6.47;;;;;;;14.65;39.77;100399.30;1666573;86;21144;-73
2021/04/29 08:01:48;;;;;;;9.23;6.25;;;;;;;14.66;40.06;100405.86;1666163;84;21447;-73
2021/04/29 08:04:16;;;;;;;11.95;6.60;;;;;;;14.90;39.49;100399.78;1667181;86;21229;-72
2021/04/29 08:06:44;;;;;;;11.38;6.17;;;;;;;15.02;39.24;100402.75;1666745;86;21145;-74
2021/04/29 08:09:12;;;;;;;21.00;6.40;;;;;;;14.90;38.92;100386.52;1666725;86;21366;-75
2021/04/29 08:11:40;;;;;;;9.88;5.58;;;;;;;14.88;38.35;100384.89;1668201;84;21179;-74
2021/04/29 08:14:08;;;;;;;13.68;5.97;;;;;;;14.65;38.70;100413.87;1666970;86;21827;-74
2021/04/29 08:16:37;;;;;;;10.68;5.90;;;;;;;14.52;39.46;100384.45;1666855;84;21228;-73
2021/04/29 08:19:08;;;;;;;12.10;5.92;;;;;;;14.55;39.18;100387.45;1666670;86;21217;-73
2021/04/29 08:21:38;;;;;;;10.08;5.40;;;;;;;14.60;40.26;100374.82;1672046;84;21246;-74
2021/04/29 08:24:07;;;;;;;17.55;4.65;;;;;;;14.72;38.47;100375.99;1666853;86;21191;-73
2021/04/29 08:26:36;;;;;;;13.75;4.37;;;;;;;14.82;36.14;100386.06;1668908;84;21393;-73
2021/04/29 08:29:05;;;;;;;22.95;6.40;;;;;;;14.36;37.10;100404.69;1743163;82;21291;-73
2021/04/29 08:31:33;;;;;;;12.90;6.25;;;;;;;13.88;38.35;100383.09;1736214;80;21167;-73
2021/04/29 08:34:01;;;;;;;12.90;6.53;;;;;;;13.72;38.88;100384.74;1746700;82;21254;-74
2021/04/29 08:36:30;;;;;;;12.88;6.22;;;;;;;13.60;39.42;100369.81;1746542;82;21122;-73
2021/04/29 08:39:00;;;;;;;18.07;7.17;;;;;;;14.02;39.12;100368.73;1746502;79;22493;-74
2021/04/29 08:41:28;;;;;;;8.95;5.92;;;;;;;14.33;38.85;100365.92;1745764;80;21254;-74
2021/04/29 08:43:57;;;;;;;9.05;6.17;;;;;;;14.62;38.37;100365.00;1744229;80;21252;-74
2021/04/29 08:46:26;;;;;;;12.53;6.20;;;;;;;14.89;37.96;100366.26;1739564;82;21211;-74
2021/04/29 08:48:56;;;;;;;9.53;5.62;;;;;;;15.13;37.97;100360.61;1736548;79;21227;-73
2021/04/29 08:51:25;;;;;;;15.05;6.83;;;;;;;15.32;36.93;100355.19;1735265;82;21899;-74
2021/04/29 08:53:57;;;;;;;15.72;7.08;;;;;;;15.13;37.55;100350.48;1738637;80;21250;-76
2021/04/29 08:56:26;;;;;;;13.78;6.70;;;;;;;14.95;37.50;100354.46;1703257;84;22469;-77
2021/04/29 08:58:57;;;;;;;20.43;6.33;;;;;;;15.02;38.08;100339.98;1675523;81;21888;-76
2021/04/29 09:01:40;;;;;;;13.55;6.78;;;;;;;15.02;37.46;100345.28;1679511;83;21216;-76
2021/04/29 09:04:15;;;;;;;15.72;6.62;;;;;;;15.06;37.28;100333.55;1675185;84;22331;-75
2021/04/29 09:06:45;;;;;;;10.50;5.90;;;;;;;15.17;37.04;100334.80;1665782;85;21171;-76
2021/04/29 09:09:14;;;;;;;12.90;7.05;;;;;;;15.00;36.86;100331.69;1676442;85;21195;-77
2021/04/29 09:11:55;;;;;;;10.80;6.40;;;;;;;15.10;37.54;100321.00;1635081;85;21473;-77
2021/04/29 09:14:35;;;;;;;16.32;7.08;;;;;;;15.33;36.59;100325.55;1658457;85;21206;-76
2021/04/29 09:17:03;;;;;;;15.60;7.62;;;;;;;15.56;36.87;100315.88;1644939;85;21387;-77
2021/04/29 09:19:35;;;;;;;16.07;7.17;;;;;;;15.95;36.66;100313.31;1665088;85;21218;-77
2021/04/29 09:22:05;;;;;;;12.93;6.60;;;;;;;16.14;35.85;100312.63;1664514;84;21167;-77
2021/04/29 09:24:39;;;;;;;17.60;7.78;;;;;;;16.26;35.02;100304.91;1679573;84;21686;-77
2021/04/29 09:27:17;;;;;;;33.30;13.22;;;;;;;16.25;36.26;100292.58;1670909;84;21259;-78
2021/04/29 09:29:56;;;;;;;11.48;5.80;;;;;;;16.65;34.81;100295.53;1675298;84;21721;-78
2021/04/29 09:32:31;;;;;;;11.33;5.55;;;;;;;16.81;33.72;100293.70;1670353;85;21258;-76
2021/04/29 09:35:01;;;;;;;12.03;6.03;;;;;;;16.70;34.14;100284.14;1655392;85;77354;-76
2021/04/29 09:37:36;;;;;;;17.07;6.97;;;;;;;16.61;34.86;100288.68;1670746;84;21230;-77
2021/04/29 09:40:23;;;;;;;19.00;7.62;;;;;;;16.11;35.04;100287.58;1664534;85;21203;-76
2021/04/29 09:42:51;;;;;;;11.20;5.12;;;;;;;15.97;35.78;100282.20;1653986;85;22318;-77
2021/04/29 09:45:28;;;;;;;14.00;6.47;;;;;;;15.96;35.80;100271.17;1678628;84;21739;-77
2021/04/29 09:48:03;;;;;;;18.90;5.78;;;;;;;16.26;36.25;100271.69;1691046;83;21640;-77
2021/04/29 09:50:38;;;;;;;10.55;5.78;;;;;;;16.36;35.45;100260.91;1662871;85;21222;-77
2021/04/29 09:53:16;;;;;;;6.58;4.87;;;;;;;16.46;35.21;100258.08;1694853;83;21194;-75
2021/04/29 09:55:48;;;;;;;10.72;5.55;;;;;;;16.41;34.50;100254.84;1665220;85;21397;-77
2021/04/29 09:58:27;;;;;;;10.93;5.80;;;;;;;16.43;35.07;100267.58;1685497;83;21234;-77
2021/04/29 10:00:51;;;;;;;12.28;5.08;;;;;;;16.35;35.30;100257.37;1686872;83;21210;-77
2021/04/29 10:03:20;;;;;;;14.65;5.25;;;;;;;16.54;35.56;100245.20;1701868;84;21216;-78
2021/04/29 10:05:53;;;;;;;14.90;5.37;;;;;;;16.39;35.07;100248.77;1653572;85;21646;-77
2021/04/29 10:08:26;;;;;;;9.68;5.00;;;;;;;16.35;36.03;100258.70;1680749;83;22704;-78
2021/04/29 10:10:56;;;;;;;9.80;4.92;;;;;;;16.37;35.73;100248.00;1685193;84;21210;-77
2021/04/29 10:13:30;;;;;;;8.88;5.33;;;;;;;16.68;34.94;100248.80;1661341;83;21211;-76
2021/04/29 10:16:00;;;;;;;7.53;4.30;;;;;;;17.01;33.72;100251.26;1678233;84;21174;-76
2021/04/29 10:18:29;;;;;;;11.38;5.03;;;;;;;17.06;33.64;100244.32;1651807;86;21230;-77
2021/04/29 10:20:59;;;;;;;8.43;3.85;;;;;;;16.98;33.58;100248.31;1669222;84;21851;-78
2021/04/29 10:23:28;;;;;;;11.83;4.72;;;;;;;16.89;33.84;100235.58;1686256;83;21218;-77
2021/04/29 10:25:58;;;;;;;10.13;4.17;;;;;;;16.50;34.34;100237.02;1685067;83;21183;-77
2021/04/29 10:28:42;;;;;;;16.07;5.45;;;;;;;16.45;34.44;100236.45;1678707;85;21162;-78
2021/04/29 10:31:20;;;;;;;7.17;4.17;;;;;;;16.72;34.45;100223.75;1678552;83;21155;-77
2021/04/29 10:33:59;;;;;;;8.30;3.58;;;;;;;16.85;34.11;100231.39;1654817;85;21681;-78
2021/04/29 10:36:42;;;;;;;9.48;4.40;;;;;;;16.92;34.07;100216.77;1757613;79;23383;-76
2021/04/29 10:39:24;;;;;;;6.47;4.28;;;;;;;16.91;34.35;100205.76;1711942;83;21163;-77
2021/04/29 10:42:09;;;;;;;8.90;4.05;;;;;;;17.26;33.62;100212.48;1724310;81;21427;-77
2021/04/29 10:44:49;;;;;;;7.92;4.35;;;;;;;17.21;33.36;100214.09;1702799;81;21192;-77
2021/04/29 10:47:29;;;;;;;9.90;4.45;;;;;;;17.27;34.17;100219.49;1714371;83;21183;-78
2021/04/29 10:50:18;;;;;;;7.92;3.87;;;;;;;17.35;33.91;100216.73;1717148;83;21155;-76
2021/04/29 10:52:59;;;;;;;7.20;3.45;;;;;;;17.09;33.88;100212.19;1718138;83;21192;-77
2021/04/29 10:55:30;;;;;;;7.80;3.50;;;;;;;17.02;33.88;100202.89;1721721;83;21642;-77
2021/04/29 10:58:01;;;;;;;7.55;3.20;;;;;;;17.23;33.94;100202.00;1722046;83;21165;-78
2021/04/29 11:00:30;;;;;;;4.80;3.67;;;;;;;17.07;33.29;100210.09;1715791;82;21162;-78
2021/04/29 11:03:01;;;;;;;7.72;4.42;;;;;;;16.84;33.68;100204.43;1716803;81;21691;-78
2021/04/29 11:05:30;;;;;;;11.00;3.77;;;;;;;16.76;34.38;100202.67;1713041;83;21694;-77
2021/04/29 11:08:12;;;;;;;12.13;3.83;;;;;;;16.67;34.15;100219.19;1694186;83;21542;-77
2021/04/29 11:10:40;;;;;;;13.55;4.60;;;;;;;16.62;34.54;100194.70;1717243;83;21586;-78
2021/04/29 11:13:09;;;;;;;15.18;3.87;;;;;;;16.71;34.93;100198.12;1715996;81;21179;-77
2021/04/29 11:15:42;;;;;;;12.23;4.05;;;;;;;16.64;34.32;100215.41;1715893;81;21163;-76
2021/04/29 11:18:22;;;;;;;12.10;4.40;;;;;;;16.10;35.02;100207.51;1709891;81;21159;-77
2021/04/29 11:20:57;;;;;;;7.80;4.62;;;;;;;15.85;35.60;100197.45;1686946;83;21199;-79
2021/04/29 11:35:00;;;;;;;10.23;4.90;;;;;;;17.10;34.67;100180.66;1735934;77;22228;-81
2021/04/29 11:37:43;;;;;;;12.37;4.45;;;;;;;16.82;34.75;100176.19;1718578;80;20986;-80
2021/04/29 11:40:13;;;;;;;10.98;4.50;;;;;;;16.71;35.27;100188.33;1719769;80;21366;-79
2021/04/29 11:42:43;;;;;;;7.45;4.70;;;;;;;16.73;35.29;100185.59;1670898;81;21219;-82
2021/04/29 11:45:27;;;;;;;11.55;4.80;;;;;;;16.82;34.65;100183.72;1833795;74;22167;-81
2021/04/29 11:47:59;;;;;;;6.30;4.42;;;;;;;16.76;34.92;100188.89;1806642;76;21077;-81
2021/04/29 11:50:48;;;;;;;;;;;;;;;16.53;35.37;100166.37;1802841;76;21355;-81
2021/04/29 11:53:19;;;;;;;16.05;4.90;;;;;;;16.55;36.00;100155.18;1821325;77;20570;-79
2021/04/29 11:55:51;;;;;;;22.95;6.05;;;;;;;16.73;35.22;100155.00;1791040;77;21148;-81
2021/04/29 11:58:20;;;;;;;9.13;4.40;;;;;;;16.63;35.48;100144.55;1767029;80;21226;-80
2021/04/29 12:00:54;;;;;;;8.25;4.97;;;;;;;16.48;35.18;100149.86;1754064;80;21132;-81
2021/04/29 12:03:25;;;;;;;8.40;5.30;;;;;;;16.47;35.53;100131.34;1751932;80;21254;-82